createdAt,value
2023-05-21T00:04:33.775Z,15.49
2023-05-21T00:09:38.205Z,15.44
2023-05-21T00:14:40.892Z,15.43
2023-05-21T00:19:50.085Z,15.42
2023-05-21T00:24:53.110Z,14.93
2023-05-21T00:29:55.895Z,13.91
2023-05-21T00:35:00.259Z,13.73
2023-05-21T00:40:06.527Z,14.79
2023-05-21T00:45:10.107Z,14.86
2023-05-21T00:50:21.741Z,14.87
2023-05-21T00:55:25.377Z,14.56
2023-05-21T01:00:28.720Z,14.80
2023-05-21T01:05:33.106Z,12.44
2023-05-21T01:10:35.958Z,14.83
2023-05-21T01:15:39.152Z,13.51
2023-05-21T01:20:48.275Z,14.69
2023-05-21T01:25:54.803Z,14.02
2023-05-21T01:31:03.639Z,14.45
2023-05-21T01:36:25.120Z,13.74
2023-05-21T01:41:33.922Z,14.88
2023-05-21T01:46:37.785Z,14.56
2023-05-21T01:51:41.075Z,13.44
2023-05-21T01:56:47.795Z,14.40
2023-05-21T02:01:50.599Z,14.63
2023-05-21T02:06:54.750Z,14.59
2023-05-21T02:11:59.129Z,14.58
2023-05-21T02:17:02.289Z,14.43
2023-05-21T02:22:05.154Z,14.08
2023-05-21T02:27:10.502Z,14.34
2023-05-21T02:32:13.900Z,14.40
2023-05-21T02:37:18.858Z,14.38
2023-05-21T02:42:23.601Z,14.28
2023-05-21T02:47:28.169Z,14.22
2023-05-21T02:52:31.282Z,14.25
2023-05-21T02:57:35.663Z,14.07
2023-05-21T03:02:38.505Z,14.34
2023-05-21T03:07:41.978Z,14.27
2023-05-21T03:12:46.099Z,13.88
2023-05-21T03:17:49.844Z,14.30
2023-05-21T03:22:55.369Z,14.30
2023-05-21T03:27:59.628Z,14.13
2023-05-21T03:33:20.730Z,13.94
2023-05-21T03:38:26.212Z,13.80
2023-05-21T03:43:32.645Z,13.87
2023-05-21T03:48:35.671Z,13.96
2023-05-21T03:53:38.382Z,14.34
2023-05-21T03:58:42.726Z,14.34
2023-05-21T04:03:45.787Z,14.34
2023-05-21T04:08:49.930Z,14.32
2023-05-21T04:13:56.797Z,14.31
2023-05-21T04:18:59.548Z,14.29
2023-05-21T04:24:03.820Z,14.15
2023-05-21T04:29:29.882Z,14.23
2023-05-21T04:34:33.900Z,14.33
2023-05-21T04:39:40.966Z,14.26
2023-05-21T04:44:45.523Z,14.30
2023-05-21T04:49:48.564Z,14.33
2023-05-21T04:54:51.748Z,14.16
2023-05-21T04:59:58.159Z,14.36
2023-05-21T05:05:02.282Z,14.28
2023-05-21T05:10:09.672Z,14.07
2023-05-21T05:15:13.891Z,13.14
2023-05-21T05:20:17.199Z,14.51
2023-05-21T05:25:22.983Z,14.66
2023-05-21T05:30:28.574Z,14.70
2023-05-21T05:35:39.495Z,14.85
2023-05-21T05:40:43.440Z,14.69
2023-05-21T05:45:50.202Z,15.00
2023-05-21T05:50:54.610Z,15.09
2023-05-21T05:55:57.953Z,14.66
2023-05-21T06:01:03.013Z,15.19
2023-05-21T06:06:06.120Z,15.42
2023-05-21T06:11:09.547Z,14.85
2023-05-21T06:16:13.791Z,15.15
2023-05-21T06:21:16.718Z,14.52
2023-05-21T06:26:21.984Z,15.83
2023-05-21T06:31:28.032Z,15.55
2023-05-21T06:36:32.682Z,14.02
2023-05-21T06:41:39.654Z,15.61
2023-05-21T06:47:23.107Z,14.76
2023-05-21T06:52:53.436Z,13.90
2023-05-21T06:58:02.642Z,16.00
2023-05-21T07:03:08.649Z,14.72
2023-05-21T07:08:14.379Z,16.39
2023-05-21T07:13:17.557Z,16.24
2023-05-21T07:18:22.261Z,16.62
2023-05-21T07:23:26.227Z,16.80
2023-05-21T07:28:29.006Z,16.51
2023-05-21T07:33:36.671Z,16.86
2023-05-21T07:38:40.216Z,17.09
2023-05-21T07:43:44.915Z,16.26
2023-05-21T07:48:57.281Z,17.18
2023-05-21T07:54:01.103Z,17.28
2023-05-21T07:59:08.845Z,17.19
2023-05-21T08:04:16.670Z,17.40
2023-05-21T08:09:21.676Z,17.59
2023-05-21T08:14:26.500Z,17.76
2023-05-21T08:19:33.924Z,17.78
2023-05-21T08:24:37.579Z,17.97
2023-05-21T08:29:40.521Z,17.80
2023-05-21T08:34:49.228Z,17.85
2023-05-21T08:40:16.286Z,18.28
2023-05-21T08:45:25.627Z,18.18
2023-05-21T08:50:32.485Z,18.44
2023-05-21T08:55:46.684Z,18.13
2023-05-21T09:00:59.612Z,18.22
2023-05-21T09:06:09.177Z,17.99
2023-05-21T09:11:15.658Z,18.53
2023-05-21T09:16:35.870Z,18.58
2023-05-21T09:21:43.482Z,17.01
2023-05-21T09:27:12.288Z,17.45
2023-05-21T09:32:18.991Z,17.02
2023-05-21T09:37:27.402Z,18.76
2023-05-21T09:42:49.347Z,18.74
2023-05-21T09:48:09.553Z,18.78
2023-05-21T09:53:47.336Z,18.95
2023-05-21T09:58:40.948Z,18.80
2023-05-21T10:03:50.747Z,18.90
2023-05-21T10:09:02.548Z,19.39
2023-05-21T10:14:10.501Z,19.51
2023-05-21T10:19:19.561Z,19.63
2023-05-21T10:24:25.887Z,19.70
2023-05-21T10:29:30.383Z,19.84
2023-05-21T10:34:33.220Z,19.75
2023-05-21T10:39:39.956Z,19.87
2023-05-21T10:45:01.388Z,19.80
2023-05-21T10:50:27.684Z,19.07
2023-05-21T10:55:58.322Z,19.75
2023-05-21T11:01:07.040Z,19.58
2023-05-21T11:06:11.674Z,20.17
2023-05-21T11:11:43.764Z,20.91
2023-05-21T11:16:49.399Z,20.16
2023-05-21T11:21:52.566Z,21.17
2023-05-21T11:27:04.652Z,19.88
2023-05-21T11:32:09.191Z,20.99
2023-05-21T11:37:40.756Z,20.52
2023-05-21T11:43:03.217Z,21.03
2023-05-21T11:48:08.771Z,20.17
2023-05-21T11:53:18.336Z,21.33
2023-05-21T11:58:23.033Z,20.60
2023-05-21T12:03:30.840Z,20.44
2023-05-21T12:08:34.508Z,21.07
2023-05-21T12:13:40.673Z,22.04
2023-05-21T12:18:46.577Z,22.30
2023-05-21T12:24:00.999Z,21.45
2023-05-21T12:29:08.031Z,22.75
2023-05-21T12:34:11.933Z,22.31
2023-05-21T12:39:15.847Z,23.02
2023-05-21T12:44:20.146Z,23.27
2023-05-21T12:49:34.981Z,22.68
2023-05-21T12:54:38.898Z,22.86
2023-05-21T12:59:51.052Z,23.66
2023-05-21T13:04:58.987Z,23.02
2023-05-21T13:10:06.695Z,24.39
2023-05-21T13:15:27.812Z,24.65
2023-05-21T13:20:36.342Z,24.89
2023-05-21T13:25:40.053Z,25.16
2023-05-21T13:30:46.694Z,25.36
2023-05-21T13:35:51.961Z,25.64
2023-05-21T13:40:55.245Z,24.24
2023-05-21T13:45:59.416Z,25.16
2023-05-21T13:51:02.263Z,25.60
2023-05-21T13:56:07.160Z,25.90
2023-05-21T14:01:13.830Z,26.33
2023-05-21T14:06:17.311Z,25.64
2023-05-21T14:11:20.393Z,26.52
2023-05-21T14:16:27.199Z,26.69
2023-05-21T14:21:32.749Z,26.95
2023-05-21T14:26:36.917Z,26.87
2023-05-21T14:31:41.642Z,26.39
2023-05-21T14:36:44.502Z,26.05
2023-05-21T14:41:47.410Z,25.74
2023-05-21T14:46:52.165Z,25.07
2023-05-21T14:51:57.141Z,25.06
2023-05-21T14:57:00.024Z,24.52
2023-05-21T15:02:04.503Z,24.73
2023-05-21T15:07:07.737Z,24.43
2023-05-21T15:12:10.844Z,24.05
2023-05-21T15:17:15.092Z,24.01
2023-05-21T15:22:19.146Z,23.80
2023-05-21T15:27:35.953Z,23.74
2023-05-21T15:32:39.984Z,23.72
2023-05-21T15:37:47.537Z,23.58
2023-05-21T15:42:50.431Z,23.53
2023-05-21T15:47:54.743Z,23.23
2023-05-21T15:52:57.756Z,23.31
2023-05-21T15:58:02.238Z,23.14
2023-05-21T16:03:06.859Z,23.20
2023-05-21T16:08:10.703Z,23.24
2023-05-21T16:13:13.504Z,23.11
2023-05-21T16:18:17.719Z,23.25
2023-05-21T16:23:20.437Z,23.25
2023-05-21T16:28:24.237Z,23.26
2023-05-21T16:33:37.570Z,23.21
2023-05-21T16:38:40.278Z,23.15
2023-05-21T16:43:43.137Z,23.23
2023-05-21T16:48:47.247Z,23.21
2023-05-21T16:53:49.998Z,23.20
2023-05-21T16:58:52.812Z,23.15
2023-05-21T17:03:57.203Z,23.24
2023-05-21T17:09:00.398Z,23.06
2023-05-21T17:14:03.209Z,23.03
2023-05-21T17:19:07.425Z,22.96
2023-05-21T17:24:10.283Z,22.89
2023-05-21T17:29:13.033Z,22.65
2023-05-21T17:34:17.892Z,22.83
2023-05-21T17:39:21.003Z,22.80
2023-05-21T17:44:23.852Z,22.64
2023-05-21T17:49:35.435Z,22.67
2023-05-21T17:54:41.429Z,22.66
2023-05-21T17:59:46.445Z,22.63
2023-05-21T18:04:50.930Z,22.59
2023-05-21T18:09:53.784Z,22.43
2023-05-21T18:15:02.238Z,22.43
2023-05-21T18:26:22.797Z,22.14
2023-05-21T18:31:26.174Z,22.24
2023-05-21T18:36:58.749Z,22.42
2023-05-21T18:42:12.951Z,22.34
2023-05-21T18:47:50.613Z,22.26
2023-05-21T18:59:32.355Z,22.01
2023-05-21T19:04:52.668Z,21.47
2023-05-21T19:10:12.015Z,21.73
2023-05-21T19:16:06.818Z,19.47
2023-05-21T19:21:52.587Z,21.73
2023-05-21T19:27:58.125Z,21.63
2023-05-21T19:33:13.215Z,19.15
2023-05-21T19:44:12.740Z,21.05
2023-05-21T19:49:15.800Z,21.36
2023-05-21T19:54:18.964Z,21.23
2023-05-21T19:59:26.172Z,20.80
2023-05-21T20:04:28.881Z,21.38
2023-05-21T20:09:32.102Z,21.23
2023-05-21T20:14:36.174Z,21.10
2023-05-21T20:19:40.297Z,20.83
2023-05-21T20:24:42.962Z,20.59
2023-05-21T20:29:47.533Z,20.41
2023-05-21T20:35:02.859Z,20.34
2023-05-21T20:40:09.079Z,20.20
2023-05-21T20:45:15.655Z,19.48
2023-05-21T20:50:21.666Z,19.84
2023-05-21T20:55:24.520Z,19.74
2023-05-21T21:00:30.597Z,19.74
2023-05-21T21:05:33.299Z,19.64
2023-05-21T21:10:36.922Z,19.73
2023-05-21T21:15:43.604Z,19.36
2023-05-21T21:20:49.487Z,19.66
2023-05-21T21:25:52.502Z,19.69
2023-05-21T21:30:56.611Z,19.65
2023-05-21T21:36:03.034Z,19.37
2023-05-21T21:41:07.446Z,18.90
2023-05-21T21:46:12.128Z,19.15
2023-05-21T21:51:15.589Z,18.95
2023-05-21T21:56:18.464Z,18.94
2023-05-21T22:01:22.717Z,18.86
2023-05-21T22:06:28.512Z,17.02
2023-05-21T22:11:32.059Z,18.60
2023-05-21T22:16:43.824Z,18.26
2023-05-21T22:21:46.609Z,18.33
2023-05-21T22:26:49.626Z,18.45
2023-05-21T22:31:53.916Z,18.21
2023-05-21T22:36:57.810Z,18.74
2023-05-21T22:42:00.772Z,18.64
2023-05-21T22:47:05.364Z,18.68
2023-05-21T22:52:13.250Z,18.31
2023-05-21T22:57:16.053Z,18.57
2023-05-21T23:02:20.271Z,18.45
2023-05-21T23:07:23.002Z,18.43
2023-05-21T23:12:25.882Z,18.32
2023-05-21T23:17:29.997Z,18.24
2023-05-21T23:22:32.845Z,18.45
2023-05-21T23:27:35.834Z,17.96
2023-05-21T23:32:39.963Z,18.40
2023-05-21T23:37:48.824Z,18.27
2023-05-21T23:42:51.540Z,18.29
2023-05-21T23:47:55.845Z,18.29
2023-05-21T23:52:59.512Z,18.22
2023-05-21T23:58:06.709Z,18.27
